メインページ
METAR-TAF:

METAR-TAF

空港 :

函館空港

函館, 日本

緯度: 41-46N, 経度: 140-49E, 海抜: 33m

現時点の気象観測

当レポートは1時間50分前の11:00(UTC)に作成
の風 5kt
気温 9°C
湿度 81%
気圧 1012 hPa
視程10km以上
高度2000ftの雲はほとんどない
高度4500ftの雲は散在している

METAR: RJCH 161100Z 01005KT 9999 FEW020 SCT045 09/06 Q1012

時間: 21:50 (12:50 UTC)

予報

当レポートは1時間39分前の11:11(UTC)に作成
予報は16日の 12時(UTC)から 17日の 18時(UTC)まで有効
の風 6kt
視程10km以上
高度1500ftの雲はほとんどない
高度3000ftの千切れ雲あり
16日の 22時(UTC)から 17日の 00時(UTC)まで徐々に
西の風 11kt
17日の 09時(UTC)から 17日の 12時(UTC)まで徐々に
の風 5kt

TAF: RJCH 161111Z 1612/1718 36006KT 9999 FEW015 BKN030 BECMG 1622/1700 26011KT BECMG 1709/1712 35005KT

4,000以上の空港の気象観測と天気予報(METAR報とTAF報)

利用可能な観測所は地図上に黄色い丸と赤い丸で示す。

丸の上にカーソルを重ねると観測所名を参照できる。

次にクリックすると気象観測と天気予報を参照できる。

マップの切り替え:黒色「×」印の緑ボタンをクリックして拡大、「-」印の緑ボタンをクリックして縮小、緑色の三角印をクリックして隣りの地図に切り替え


METAR-TAF: